sensor_id;sensor_type;location;lat;lon;timestamp;temperature;humidity
40340;DHT22;26044;50.864;20.658;2023-02-04T00:00:07;2.10;99.90
40340;DHT22;26044;50.864;20.658;2023-02-04T00:02:35;2.00;99.90
40340;DHT22;26044;50.864;20.658;2023-02-04T00:05:03;2.00;99.90
40340;DHT22;26044;50.864;20.658;2023-02-04T00:07:30;2.00;99.90
40340;DHT22;26044;50.864;20.658;2023-02-04T00:09:58;2.00;99.90
40340;DHT22;26044;50.864;20.658;2023-02-04T00:12:25;2.10;99.90
40340;DHT22;26044;50.864;20.658;2023-02-04T00:14:52;2.00;99.90
40340;DHT22;26044;50.864;20.658;2023-02-04T00:17:19;2.00;99.90
40340;DHT22;26044;50.864;20.658;2023-02-04T00:19:45;2.00;99.90
40340;DHT22;26044;50.864;20.658;2023-02-04T00:22:12;2.00;99.90
40340;DHT22;26044;50.864;20.658;2023-02-04T00:24:39;2.00;99.90
40340;DHT22;26044;50.864;20.658;2023-02-04T00:27:08;1.90;99.90
40340;DHT22;26044;50.864;20.658;2023-02-04T00:29:35;1.90;99.90
40340;DHT22;26044;50.864;20.658;2023-02-04T00:32:02;1.90;99.90
40340;DHT22;26044;50.864;20.658;2023-02-04T00:34:31;1.90;99.90
40340;DHT22;26044;50.864;20.658;2023-02-04T00:36:58;1.90;99.90
40340;DHT22;26044;50.864;20.658;2023-02-04T00:39:25;1.90;99.90
40340;DHT22;26044;50.864;20.658;2023-02-04T00:41:51;1.90;99.90
40340;DHT22;26044;50.864;20.658;2023-02-04T00:44:18;1.90;99.90
40340;DHT22;26044;50.864;20.658;2023-02-04T00:46:45;1.90;99.90
40340;DHT22;26044;50.864;20.658;2023-02-04T00:49:14;1.90;99.90
40340;DHT22;26044;50.864;20.658;2023-02-04T00:51:41;1.90;99.90
40340;DHT22;26044;50.864;20.658;2023-02-04T00:54:12;1.90;99.90
40340;DHT22;26044;50.864;20.658;2023-02-04T00:56:40;1.90;99.90
40340;DHT22;26044;50.864;20.658;2023-02-04T00:59:07;1.90;99.90
40340;DHT22;26044;50.864;20.658;2023-02-04T01:01:34;2.00;99.90
40340;DHT22;26044;50.864;20.658;2023-02-04T01:04:01;1.90;99.90
40340;DHT22;26044;50.864;20.658;2023-02-04T01:06:28;1.90;99.90
40340;DHT22;26044;50.864;20.658;2023-02-04T01:08:54;1.90;99.90
40340;DHT22;26044;50.864;20.658;2023-02-04T01:11:21;1.90;99.90
40340;DHT22;26044;50.864;20.658;2023-02-04T01:13:48;1.90;99.90
40340;DHT22;26044;50.864;20.658;2023-02-04T01:16:15;1.90;99.90
40340;DHT22;26044;50.864;20.658;2023-02-04T01:18:42;1.90;99.90
40340;DHT22;26044;50.864;20.658;2023-02-04T01:21:09;1.90;99.90
40340;DHT22;26044;50.864;20.658;2023-02-04T01:23:36;1.90;99.90
40340;DHT22;26044;50.864;20.658;2023-02-04T01:26:03;1.90;99.90
40340;DHT22;26044;50.864;20.658;2023-02-04T01:28:30;1.90;99.90
40340;DHT22;26044;50.864;20.658;2023-02-04T01:30:56;1.80;99.90
40340;DHT22;26044;50.864;20.658;2023-02-04T01:33:23;1.80;99.90
40340;DHT22;26044;50.864;20.658;2023-02-04T01:35:50;1.80;99.90
40340;DHT22;26044;50.864;20.658;2023-02-04T01:38:17;1.80;99.90
40340;DHT22;26044;50.864;20.658;2023-02-04T01:40:43;1.80;99.90
40340;DHT22;26044;50.864;20.658;2023-02-04T01:43:11;1.70;99.90
40340;DHT22;26044;50.864;20.658;2023-02-04T01:45:38;1.80;99.90
40340;DHT22;26044;50.864;20.658;2023-02-04T01:48:06;1.70;99.90
40340;DHT22;26044;50.864;20.658;2023-02-04T01:50:34;1.70;99.90
40340;DHT22;26044;50.864;20.658;2023-02-04T01:53:01;1.70;99.90
40340;DHT22;26044;50.864;20.658;2023-02-04T01:55:30;1.60;99.90
40340;DHT22;26044;50.864;20.658;2023-02-04T01:57:57;1.60;99.90
40340;DHT22;26044;50.864;20.658;2023-02-04T02:00:30;1.50;99.90
40340;DHT22;26044;50.864;20.658;2023-02-04T02:02:59;1.50;99.90
40340;DHT22;26044;50.864;20.658;2023-02-04T02:05:31;1.40;99.90
40340;DHT22;26044;50.864;20.658;2023-02-04T02:08:01;1.40;99.90
40340;DHT22;26044;50.864;20.658;2023-02-04T02:10:29;1.30;99.90
40340;DHT22;26044;50.864;20.658;2023-02-04T02:12:57;1.30;99.90
40340;DHT22;26044;50.864;20.658;2023-02-04T02:15:24;1.30;99.90
40340;DHT22;26044;50.864;20.658;2023-02-04T02:17:52;1.30;99.90
40340;DHT22;26044;50.864;20.658;2023-02-04T02:20:21;1.20;99.90
40340;DHT22;26044;50.864;20.658;2023-02-04T02:25:27;1.10;99.90
40340;DHT22;26044;50.864;20.658;2023-02-04T02:27:54;1.00;99.90
40340;DHT22;26044;50.864;20.658;2023-02-04T02:30:22;0.90;99.90
40340;DHT22;26044;50.864;20.658;2023-02-04T02:32:50;0.80;99.90
40340;DHT22;26044;50.864;20.658;2023-02-04T02:35:17;0.80;99.90
40340;DHT22;26044;50.864;20.658;2023-02-04T02:37:44;0.80;99.90
40340;DHT22;26044;50.864;20.658;2023-02-04T02:40:11;0.70;99.90
40340;DHT22;26044;50.864;20.658;2023-02-04T02:42:41;0.70;99.90
40340;DHT22;26044;50.864;20.658;2023-02-04T02:45:35;0.60;99.90
40340;DHT22;26044;50.864;20.658;2023-02-04T02:48:02;0.60;99.90
40340;DHT22;26044;50.864;20.658;2023-02-04T02:50:30;0.50;99.90
40340;DHT22;26044;50.864;20.658;2023-02-04T02:52:58;0.40;99.90
40340;DHT22;26044;50.864;20.658;2023-02-04T02:55:26;0.40;99.90
40340;DHT22;26044;50.864;20.658;2023-02-04T02:57:55;0.40;99.90
40340;DHT22;26044;50.864;20.658;2023-02-04T03:00:28;0.30;99.90
40340;DHT22;26044;50.864;20.658;2023-02-04T03:03:06;0.30;99.90
40340;DHT22;26044;50.864;20.658;2023-02-04T03:05:38;0.20;99.90
40340;DHT22;26044;50.864;20.658;2023-02-04T03:08:06;0.20;99.90
40340;DHT22;26044;50.864;20.658;2023-02-04T03:10:35;0.20;99.90
40340;DHT22;26044;50.864;20.658;2023-02-04T03:13:02;0.20;99.90
40340;DHT22;26044;50.864;20.658;2023-02-04T03:15:30;0.10;99.90
40340;DHT22;26044;50.864;20.658;2023-02-04T03:17:58;0.10;99.90
40340;DHT22;26044;50.864;20.658;2023-02-04T03:20:27;0.10;99.90
40340;DHT22;26044;50.864;20.658;2023-02-04T03:22:56;0.00;99.90
40340;DHT22;26044;50.864;20.658;2023-02-04T03:25:24;0.10;99.90
40340;DHT22;26044;50.864;20.658;2023-02-04T03:27:52;0.00;99.90
40340;DHT22;26044;50.864;20.658;2023-02-04T03:30:21;-0.10;99.90
40340;DHT22;26044;50.864;20.658;2023-02-04T03:32:48;-0.10;99.90
40340;DHT22;26044;50.864;20.658;2023-02-04T03:35:15;-0.10;99.90
40340;DHT22;26044;50.864;20.658;2023-02-04T03:37:42;-0.20;99.90
40340;DHT22;26044;50.864;20.658;2023-02-04T03:40:10;-0.20;99.90
40340;DHT22;26044;50.864;20.658;2023-02-04T03:42:37;-0.30;99.90
40340;DHT22;26044;50.864;20.658;2023-02-04T03:45:04;-0.30;99.90
40340;DHT22;26044;50.864;20.658;2023-02-04T03:47:31;-0.30;99.90
40340;DHT22;26044;50.864;20.658;2023-02-04T03:49:58;-0.40;99.90
40340;DHT22;26044;50.864;20.658;2023-02-04T03:52:24;-0.40;99.90
40340;DHT22;26044;50.864;20.658;2023-02-04T03:54:51;-0.40;99.90
40340;DHT22;26044;50.864;20.658;2023-02-04T03:57:18;-0.40;99.90
40340;DHT22;26044;50.864;20.658;2023-02-04T03:59:45;-0.50;99.90
40340;DHT22;26044;50.864;20.658;2023-02-04T04:02:11;-0.50;99.90
40340;DHT22;26044;50.864;20.658;2023-02-04T04:04:38;-0.50;99.90
40340;DHT22;26044;50.864;20.658;2023-02-04T04:07:05;-0.60;99.90
40340;DHT22;26044;50.864;20.658;2023-02-04T04:09:32;-0.60;99.90
40340;DHT22;26044;50.864;20.658;2023-02-04T04:11:59;-0.60;99.90
40340;DHT22;26044;50.864;20.658;2023-02-04T04:14:26;-0.60;99.90
40340;DHT22;26044;50.864;20.658;2023-02-04T04:16:53;-0.70;99.90
40340;DHT22;26044;50.864;20.658;2023-02-04T04:19:22;-0.70;99.90
40340;DHT22;26044;50.864;20.658;2023-02-04T04:21:50;-0.60;99.90
40340;DHT22;26044;50.864;20.658;2023-02-04T04:24:16;-0.70;99.90
40340;DHT22;26044;50.864;20.658;2023-02-04T04:26:43;-0.70;99.90
40340;DHT22;26044;50.864;20.658;2023-02-04T04:29:10;-0.70;99.90
40340;DHT22;26044;50.864;20.658;2023-02-04T04:31:37;-0.70;99.90
40340;DHT22;26044;50.864;20.658;2023-02-04T04:34:04;-0.70;99.90
40340;DHT22;26044;50.864;20.658;2023-02-04T04:36:31;-0.70;99.90
40340;DHT22;26044;50.864;20.658;2023-02-04T04:38:57;-0.70;99.90
40340;DHT22;26044;50.864;20.658;2023-02-04T04:41:25;-0.70;99.90
40340;DHT22;26044;50.864;20.658;2023-02-04T04:43:52;-0.70;99.90
40340;DHT22;26044;50.864;20.658;2023-02-04T04:46:18;-0.70;99.90
40340;DHT22;26044;50.864;20.658;2023-02-04T04:48:47;-0.70;99.90
40340;DHT22;26044;50.864;20.658;2023-02-04T04:51:13;-0.80;99.90
40340;DHT22;26044;50.864;20.658;2023-02-04T04:53:40;-0.80;99.90
40340;DHT22;26044;50.864;20.658;2023-02-04T04:56:07;-0.80;99.90
40340;DHT22;26044;50.864;20.658;2023-02-04T04:58:34;-0.80;99.90
40340;DHT22;26044;50.864;20.658;2023-02-04T05:01:02;-0.90;99.90
40340;DHT22;26044;50.864;20.658;2023-02-04T05:03:29;-0.90;99.90
40340;DHT22;26044;50.864;20.658;2023-02-04T05:05:55;-0.90;99.90
40340;DHT22;26044;50.864;20.658;2023-02-04T05:08:22;-0.90;99.90
40340;DHT22;26044;50.864;20.658;2023-02-04T05:10:49;-0.80;99.90
40340;DHT22;26044;50.864;20.658;2023-02-04T05:13:16;-0.90;99.90
40340;DHT22;26044;50.864;20.658;2023-02-04T05:15:42;-0.90;99.90
40340;DHT22;26044;50.864;20.658;2023-02-04T05:18:09;-0.90;99.90
40340;DHT22;26044;50.864;20.658;2023-02-04T05:20:36;-0.90;99.90
40340;DHT22;26044;50.864;20.658;2023-02-04T05:23:03;-0.90;99.90
40340;DHT22;26044;50.864;20.658;2023-02-04T05:25:31;-1.00;99.90
40340;DHT22;26044;50.864;20.658;2023-02-04T05:27:58;-1.00;99.90
40340;DHT22;26044;50.864;20.658;2023-02-04T05:30:25;-0.90;99.90
40340;DHT22;26044;50.864;20.658;2023-02-04T05:32:52;-0.90;99.90
40340;DHT22;26044;50.864;20.658;2023-02-04T05:35:19;-0.90;99.90
40340;DHT22;26044;50.864;20.658;2023-02-04T05:37:46;-0.90;99.90
40340;DHT22;26044;50.864;20.658;2023-02-04T05:40:13;-0.90;99.90
40340;DHT22;26044;50.864;20.658;2023-02-04T05:42:42;-0.90;99.90
40340;DHT22;26044;50.864;20.658;2023-02-04T05:45:13;-0.90;99.90
40340;DHT22;26044;50.864;20.658;2023-02-04T05:47:42;-0.90;99.90
40340;DHT22;26044;50.864;20.658;2023-02-04T05:50:09;-0.90;99.90
40340;DHT22;26044;50.864;20.658;2023-02-04T05:52:36;-1.00;99.90
40340;DHT22;26044;50.864;20.658;2023-02-04T05:55:06;-0.90;99.90
40340;DHT22;26044;50.864;20.658;2023-02-04T05:57:33;-1.00;99.90
40340;DHT22;26044;50.864;20.658;2023-02-04T05:59:59;-1.00;99.90
40340;DHT22;26044;50.864;20.658;2023-02-04T06:02:26;-1.00;99.90
40340;DHT22;26044;50.864;20.658;2023-02-04T06:04:53;-1.00;99.90
40340;DHT22;26044;50.864;20.658;2023-02-04T06:07:20;-0.90;99.90
40340;DHT22;26044;50.864;20.658;2023-02-04T06:09:46;-1.00;99.90
40340;DHT22;26044;50.864;20.658;2023-02-04T06:12:13;-0.90;99.90
40340;DHT22;26044;50.864;20.658;2023-02-04T06:14:40;-1.00;99.90
40340;DHT22;26044;50.864;20.658;2023-02-04T06:17:06;-1.00;99.90
40340;DHT22;26044;50.864;20.658;2023-02-04T06:19:33;-0.90;99.90
40340;DHT22;26044;50.864;20.658;2023-02-04T06:22:00;-1.00;99.90
40340;DHT22;26044;50.864;20.658;2023-02-04T06:24:27;-1.00;99.90
40340;DHT22;26044;50.864;20.658;2023-02-04T06:26:55;-1.00;99.90
40340;DHT22;26044;50.864;20.658;2023-02-04T06:29:22;-1.00;99.90
40340;DHT22;26044;50.864;20.658;2023-02-04T06:31:49;-1.10;99.90
40340;DHT22;26044;50.864;20.658;2023-02-04T06:34:16;-1.10;99.90
40340;DHT22;26044;50.864;20.658;2023-02-04T06:36:43;-1.10;99.90
40340;DHT22;26044;50.864;20.658;2023-02-04T06:39:10;-1.10;99.90
40340;DHT22;26044;50.864;20.658;2023-02-04T06:41:37;-1.10;99.90
40340;DHT22;26044;50.864;20.658;2023-02-04T06:44:03;-1.10;99.90
40340;DHT22;26044;50.864;20.658;2023-02-04T06:46:30;-1.10;99.90
40340;DHT22;26044;50.864;20.658;2023-02-04T06:48:57;-1.10;99.90
40340;DHT22;26044;50.864;20.658;2023-02-04T06:51:24;-1.00;99.90
40340;DHT22;26044;50.864;20.658;2023-02-04T06:53:51;-1.00;99.90
40340;DHT22;26044;50.864;20.658;2023-02-04T06:56:18;-1.00;99.90
40340;DHT22;26044;50.864;20.658;2023-02-04T06:58:45;-1.00;99.90
40340;DHT22;26044;50.864;20.658;2023-02-04T07:01:12;-1.00;99.90
40340;DHT22;26044;50.864;20.658;2023-02-04T07:03:38;-1.00;99.90
40340;DHT22;26044;50.864;20.658;2023-02-04T07:06:05;-1.10;99.90
40340;DHT22;26044;50.864;20.658;2023-02-04T07:08:32;-1.00;99.90
40340;DHT22;26044;50.864;20.658;2023-02-04T07:10:59;-1.00;99.90
40340;DHT22;26044;50.864;20.658;2023-02-04T07:13:27;-1.00;99.90
40340;DHT22;26044;50.864;20.658;2023-02-04T07:15:54;-1.00;99.90
40340;DHT22;26044;50.864;20.658;2023-02-04T07:18:21;-1.00;99.90
40340;DHT22;26044;50.864;20.658;2023-02-04T07:20:48;-0.90;99.90
40340;DHT22;26044;50.864;20.658;2023-02-04T07:23:14;-0.90;99.90
40340;DHT22;26044;50.864;20.658;2023-02-04T07:25:41;-1.00;99.90
40340;DHT22;26044;50.864;20.658;2023-02-04T07:28:09;-0.90;99.90
40340;DHT22;26044;50.864;20.658;2023-02-04T07:30:36;-0.90;99.90
40340;DHT22;26044;50.864;20.658;2023-02-04T07:33:03;-0.90;99.90
40340;DHT22;26044;50.864;20.658;2023-02-04T07:35:30;-0.90;99.90
40340;DHT22;26044;50.864;20.658;2023-02-04T07:37:58;-0.90;99.90
40340;DHT22;26044;50.864;20.658;2023-02-04T07:40:24;-0.90;99.90
40340;DHT22;26044;50.864;20.658;2023-02-04T07:42:51;-0.90;99.90
40340;DHT22;26044;50.864;20.658;2023-02-04T07:45:18;-0.80;99.90
40340;DHT22;26044;50.864;20.658;2023-02-04T07:47:45;-0.90;99.90
40340;DHT22;26044;50.864;20.658;2023-02-04T07:50:12;-0.80;99.90
40340;DHT22;26044;50.864;20.658;2023-02-04T07:52:39;-0.80;99.90
40340;DHT22;26044;50.864;20.658;2023-02-04T07:55:06;-0.80;99.90
40340;DHT22;26044;50.864;20.658;2023-02-04T07:57:33;-0.80;99.90
40340;DHT22;26044;50.864;20.658;2023-02-04T07:59:59;-0.80;99.90
40340;DHT22;26044;50.864;20.658;2023-02-04T08:02:26;-0.70;99.90
40340;DHT22;26044;50.864;20.658;2023-02-04T08:05:16;-0.70;99.90
40340;DHT22;26044;50.864;20.658;2023-02-04T08:12:24;-0.70;99.90
40340;DHT22;26044;50.864;20.658;2023-02-04T08:22:45;-0.70;99.90
40340;DHT22;26044;50.864;20.658;2023-02-04T08:29:36;-0.60;99.90
40340;DHT22;26044;50.864;20.658;2023-02-04T08:40:40;-0.50;99.90
40340;DHT22;26044;50.864;20.658;2023-02-04T08:43:36;-0.50;99.90
40340;DHT22;26044;50.864;20.658;2023-02-04T08:46:50;-0.60;99.90
40340;DHT22;26044;50.864;20.658;2023-02-04T08:50:02;-0.60;99.90
40340;DHT22;26044;50.864;20.658;2023-02-04T08:55:59;-0.50;99.90
40340;DHT22;26044;50.864;20.658;2023-02-04T08:58:38;-0.60;99.90
40340;DHT22;26044;50.864;20.658;2023-02-04T09:01:09;-0.60;99.90
40340;DHT22;26044;50.864;20.658;2023-02-04T09:04:18;-0.60;99.90
40340;DHT22;26044;50.864;20.658;2023-02-04T09:07:38;-0.60;99.90
40340;DHT22;26044;50.864;20.658;2023-02-04T09:10:45;-0.50;99.90
40340;DHT22;26044;50.864;20.658;2023-02-04T09:13:25;-0.50;99.90
40340;DHT22;26044;50.864;20.658;2023-02-04T09:16:23;-0.50;99.90
40340;DHT22;26044;50.864;20.658;2023-02-04T09:19:34;-0.40;99.90
40340;DHT22;26044;50.864;20.658;2023-02-04T09:22:39;-0.40;99.90
40340;DHT22;26044;50.864;20.658;2023-02-04T09:26:12;-0.40;99.90
40340;DHT22;26044;50.864;20.658;2023-02-04T09:29:41;-0.20;99.90
40340;DHT22;26044;50.864;20.658;2023-02-04T09:32:56;-0.20;99.90
40340;DHT22;26044;50.864;20.658;2023-02-04T09:36:32;0.00;99.90
40340;DHT22;26044;50.864;20.658;2023-02-04T09:40:20;0.10;99.90
40340;DHT22;26044;50.864;20.658;2023-02-04T09:54:18;-0.30;99.90
40340;DHT22;26044;50.864;20.658;2023-02-04T10:01:15;-0.20;99.90
40340;DHT22;26044;50.864;20.658;2023-02-04T10:04:10;-0.40;99.90
40340;DHT22;26044;50.864;20.658;2023-02-04T10:06:49;-0.50;99.90
40340;DHT22;26044;50.864;20.658;2023-02-04T10:09:42;-0.40;99.90
40340;DHT22;26044;50.864;20.658;2023-02-04T10:12:28;-0.30;99.90
40340;DHT22;26044;50.864;20.658;2023-02-04T10:15:17;-0.40;99.90
40340;DHT22;26044;50.864;20.658;2023-02-04T10:18:31;-0.40;99.90
40340;DHT22;26044;50.864;20.658;2023-02-04T10:21:29;-0.30;99.90
40340;DHT22;26044;50.864;20.658;2023-02-04T10:24:26;-0.40;99.90
40340;DHT22;26044;50.864;20.658;2023-02-04T10:27:36;-0.40;99.90
40340;DHT22;26044;50.864;20.658;2023-02-04T10:30:39;-0.40;99.90
40340;DHT22;26044;50.864;20.658;2023-02-04T10:33:36;-0.50;99.90
40340;DHT22;26044;50.864;20.658;2023-02-04T10:36:15;-0.40;99.90
40340;DHT22;26044;50.864;20.658;2023-02-04T10:39:05;-0.30;99.90
40340;DHT22;26044;50.864;20.658;2023-02-04T10:41:47;-0.20;99.90
40340;DHT22;26044;50.864;20.658;2023-02-04T10:47:48;1.10;99.90
40340;DHT22;26044;50.864;20.658;2023-02-04T10:50:43;0.70;99.90
40340;DHT22;26044;50.864;20.658;2023-02-04T10:53:22;0.60;99.90
40340;DHT22;26044;50.864;20.658;2023-02-04T10:56:21;1.20;99.90
40340;DHT22;26044;50.864;20.658;2023-02-04T10:58:48;0.80;99.90
40340;DHT22;26044;50.864;20.658;2023-02-04T11:01:23;1.20;99.90
40340;DHT22;26044;50.864;20.658;2023-02-04T11:03:53;0.70;99.90
40340;DHT22;26044;50.864;20.658;2023-02-04T11:06:22;0.40;99.90
40340;DHT22;26044;50.864;20.658;2023-02-04T11:08:50;0.10;99.90
40340;DHT22;26044;50.864;20.658;2023-02-04T11:11:24;-0.10;99.90
40340;DHT22;26044;50.864;20.658;2023-02-04T11:16:34;-0.30;99.90
40340;DHT22;26044;50.864;20.658;2023-02-04T11:19:12;-0.30;99.90
40340;DHT22;26044;50.864;20.658;2023-02-04T11:21:42;-0.10;99.90
40340;DHT22;26044;50.864;20.658;2023-02-04T11:26:51;-0.20;99.90
40340;DHT22;26044;50.864;20.658;2023-02-04T11:29:32;0.10;99.90
40340;DHT22;26044;50.864;20.658;2023-02-04T11:32:28;0.20;99.90
40340;DHT22;26044;50.864;20.658;2023-02-04T11:37:40;-0.30;99.90
40340;DHT22;26044;50.864;20.658;2023-02-04T11:42:55;-0.30;99.90
40340;DHT22;26044;50.864;20.658;2023-02-04T11:45:29;-0.30;99.90
40340;DHT22;26044;50.864;20.658;2023-02-04T11:47:59;-0.20;99.90
40340;DHT22;26044;50.864;20.658;2023-02-04T11:50:33;-0.10;99.90
40340;DHT22;26044;50.864;20.658;2023-02-04T11:53:04;-0.10;99.90
40340;DHT22;26044;50.864;20.658;2023-02-04T11:55:34;-0.20;99.90
40340;DHT22;26044;50.864;20.658;2023-02-04T11:58:04;-0.20;99.90
40340;DHT22;26044;50.864;20.658;2023-02-04T12:00:32;-0.10;99.90
40340;DHT22;26044;50.864;20.658;2023-02-04T12:03:02;-0.20;99.90
40340;DHT22;26044;50.864;20.658;2023-02-04T12:05:44;-0.10;99.90
40340;DHT22;26044;50.864;20.658;2023-02-04T12:08:34;0.00;99.90
40340;DHT22;26044;50.864;20.658;2023-02-04T12:11:26;-0.10;99.90
40340;DHT22;26044;50.864;20.658;2023-02-04T12:14:05;-0.10;99.90
40340;DHT22;26044;50.864;20.658;2023-02-04T12:16:45;0.00;99.90
40340;DHT22;26044;50.864;20.658;2023-02-04T12:19:13;-0.10;99.90
40340;DHT22;26044;50.864;20.658;2023-02-04T12:21:40;-0.10;99.90
40340;DHT22;26044;50.864;20.658;2023-02-04T12:24:07;0.10;99.90
40340;DHT22;26044;50.864;20.658;2023-02-04T12:26:35;-0.10;99.90
40340;DHT22;26044;50.864;20.658;2023-02-04T12:29:02;0.00;99.90
40340;DHT22;26044;50.864;20.658;2023-02-04T12:31:31;-0.10;99.90
40340;DHT22;26044;50.864;20.658;2023-02-04T12:33:59;-0.10;99.90
40340;DHT22;26044;50.864;20.658;2023-02-04T12:36:26;-0.20;99.90
40340;DHT22;26044;50.864;20.658;2023-02-04T12:38:55;-0.20;99.90
40340;DHT22;26044;50.864;20.658;2023-02-04T12:41:24;-0.10;99.90
40340;DHT22;26044;50.864;20.658;2023-02-04T12:43:51;-0.20;99.90
40340;DHT22;26044;50.864;20.658;2023-02-04T12:46:20;-0.20;99.90
40340;DHT22;26044;50.864;20.658;2023-02-04T12:48:47;-0.20;99.90
40340;DHT22;26044;50.864;20.658;2023-02-04T12:51:14;-0.30;99.90
40340;DHT22;26044;50.864;20.658;2023-02-04T12:53:41;-0.20;99.90
40340;DHT22;26044;50.864;20.658;2023-02-04T12:56:08;-0.20;99.90
40340;DHT22;26044;50.864;20.658;2023-02-04T12:58:35;-0.20;99.90
40340;DHT22;26044;50.864;20.658;2023-02-04T13:01:02;-0.30;99.90
40340;DHT22;26044;50.864;20.658;2023-02-04T13:03:30;-0.40;99.90
40340;DHT22;26044;50.864;20.658;2023-02-04T13:05:58;-0.50;99.90
40340;DHT22;26044;50.864;20.658;2023-02-04T13:08:25;-0.50;99.90
40340;DHT22;26044;50.864;20.658;2023-02-04T13:10:52;-0.40;99.90
40340;DHT22;26044;50.864;20.658;2023-02-04T13:13:20;-0.60;99.90
40340;DHT22;26044;50.864;20.658;2023-02-04T13:15:47;-0.60;99.90
40340;DHT22;26044;50.864;20.658;2023-02-04T13:18:14;-0.60;99.90
40340;DHT22;26044;50.864;20.658;2023-02-04T13:20:43;-0.60;99.90
40340;DHT22;26044;50.864;20.658;2023-02-04T13:23:12;-0.70;99.90
40340;DHT22;26044;50.864;20.658;2023-02-04T13:25:39;-0.70;99.90
40340;DHT22;26044;50.864;20.658;2023-02-04T13:28:06;-0.60;99.90
40340;DHT22;26044;50.864;20.658;2023-02-04T13:30:33;-0.60;99.90
40340;DHT22;26044;50.864;20.658;2023-02-04T13:33:00;-0.50;99.90
40340;DHT22;26044;50.864;20.658;2023-02-04T13:35:28;-0.60;99.90
40340;DHT22;26044;50.864;20.658;2023-02-04T13:37:54;-0.70;99.90
40340;DHT22;26044;50.864;20.658;2023-02-04T13:40:22;-0.70;99.90
40340;DHT22;26044;50.864;20.658;2023-02-04T13:42:49;-0.70;99.90
40340;DHT22;26044;50.864;20.658;2023-02-04T13:45:16;-0.70;99.90
40340;DHT22;26044;50.864;20.658;2023-02-04T13:47:44;-0.70;99.90
40340;DHT22;26044;50.864;20.658;2023-02-04T13:50:15;-0.70;99.90
40340;DHT22;26044;50.864;20.658;2023-02-04T13:52:41;-0.80;99.90
40340;DHT22;26044;50.864;20.658;2023-02-04T13:55:08;-0.80;99.90
40340;DHT22;26044;50.864;20.658;2023-02-04T13:57:36;-0.80;99.90
40340;DHT22;26044;50.864;20.658;2023-02-04T14:00:05;-0.80;99.90
40340;DHT22;26044;50.864;20.658;2023-02-04T14:02:32;-0.80;99.90
40340;DHT22;26044;50.864;20.658;2023-02-04T14:05:01;-0.90;99.90
40340;DHT22;26044;50.864;20.658;2023-02-04T14:07:27;-0.80;99.90
40340;DHT22;26044;50.864;20.658;2023-02-04T14:09:56;-0.90;99.90
40340;DHT22;26044;50.864;20.658;2023-02-04T14:12:22;-0.90;99.90
40340;DHT22;26044;50.864;20.658;2023-02-04T14:14:49;-0.90;99.90
40340;DHT22;26044;50.864;20.658;2023-02-04T14:17:17;-0.90;99.90
40340;DHT22;26044;50.864;20.658;2023-02-04T14:19:44;-1.00;99.90
40340;DHT22;26044;50.864;20.658;2023-02-04T14:22:13;-1.00;99.90
40340;DHT22;26044;50.864;20.658;2023-02-04T14:24:41;-1.00;99.90
40340;DHT22;26044;50.864;20.658;2023-02-04T14:27:09;-0.90;99.90
40340;DHT22;26044;50.864;20.658;2023-02-04T14:29:36;-0.90;99.90
40340;DHT22;26044;50.864;20.658;2023-02-04T14:32:03;-1.00;99.90
40340;DHT22;26044;50.864;20.658;2023-02-04T14:34:30;-0.90;99.90
40340;DHT22;26044;50.864;20.658;2023-02-04T14:37:10;-1.00;99.90
40340;DHT22;26044;50.864;20.658;2023-02-04T14:40:15;-1.00;99.90
40340;DHT22;26044;50.864;20.658;2023-02-04T14:43:10;-1.00;99.90
40340;DHT22;26044;50.864;20.658;2023-02-04T14:45:39;-1.00;99.90
40340;DHT22;26044;50.864;20.658;2023-02-04T14:48:07;-1.10;99.90
40340;DHT22;26044;50.864;20.658;2023-02-04T14:50:36;-1.00;99.90
40340;DHT22;26044;50.864;20.658;2023-02-04T14:53:06;-1.10;99.90
40340;DHT22;26044;50.864;20.658;2023-02-04T14:55:33;-1.10;99.90
40340;DHT22;26044;50.864;20.658;2023-02-04T14:58:02;-1.00;99.90
40340;DHT22;26044;50.864;20.658;2023-02-04T15:00:29;-1.10;99.90
40340;DHT22;26044;50.864;20.658;2023-02-04T15:02:58;-1.10;99.90
40340;DHT22;26044;50.864;20.658;2023-02-04T15:05:25;-1.10;99.90
40340;DHT22;26044;50.864;20.658;2023-02-04T15:07:51;-1.10;99.90
40340;DHT22;26044;50.864;20.658;2023-02-04T15:10:18;-1.00;99.90
40340;DHT22;26044;50.864;20.658;2023-02-04T15:12:45;-1.10;99.90
40340;DHT22;26044;50.864;20.658;2023-02-04T15:15:12;-1.10;99.90
40340;DHT22;26044;50.864;20.658;2023-02-04T15:17:40;-1.10;99.90
40340;DHT22;26044;50.864;20.658;2023-02-04T15:20:07;-1.10;99.90
40340;DHT22;26044;50.864;20.658;2023-02-04T15:22:38;-1.20;99.90
40340;DHT22;26044;50.864;20.658;2023-02-04T15:25:12;-1.30;99.90
40340;DHT22;26044;50.864;20.658;2023-02-04T15:28:07;-1.30;99.90
40340;DHT22;26044;50.864;20.658;2023-02-04T15:30:37;-1.30;99.90
40340;DHT22;26044;50.864;20.658;2023-02-04T15:33:04;-1.30;99.90
40340;DHT22;26044;50.864;20.658;2023-02-04T15:35:33;-1.30;99.90
40340;DHT22;26044;50.864;20.658;2023-02-04T15:38:03;-1.30;99.90
40340;DHT22;26044;50.864;20.658;2023-02-04T15:40:30;-1.40;99.90
40340;DHT22;26044;50.864;20.658;2023-02-04T15:42:57;-1.30;99.90
40340;DHT22;26044;50.864;20.658;2023-02-04T15:45:27;-1.40;99.90
40340;DHT22;26044;50.864;20.658;2023-02-04T15:47:56;-1.40;99.90
40340;DHT22;26044;50.864;20.658;2023-02-04T15:50:24;-1.40;99.90
40340;DHT22;26044;50.864;20.658;2023-02-04T15:52:51;-1.40;99.90
40340;DHT22;26044;50.864;20.658;2023-02-04T15:55:18;-1.50;99.90
40340;DHT22;26044;50.864;20.658;2023-02-04T15:57:45;-1.50;99.90
40340;DHT22;26044;50.864;20.658;2023-02-04T16:00:12;-1.50;99.90
40340;DHT22;26044;50.864;20.658;2023-02-04T16:02:39;-1.50;99.90
40340;DHT22;26044;50.864;20.658;2023-02-04T16:05:06;-1.50;99.90
40340;DHT22;26044;50.864;20.658;2023-02-04T16:07:33;-1.50;99.90
40340;DHT22;26044;50.864;20.658;2023-02-04T16:10:00;-1.50;99.90
40340;DHT22;26044;50.864;20.658;2023-02-04T16:12:26;-1.60;99.90
40340;DHT22;26044;50.864;20.658;2023-02-04T16:14:55;-1.60;99.90
40340;DHT22;26044;50.864;20.658;2023-02-04T16:17:21;-1.60;99.90
40340;DHT22;26044;50.864;20.658;2023-02-04T16:19:48;-1.60;99.90
40340;DHT22;26044;50.864;20.658;2023-02-04T16:22:15;-1.60;99.90
40340;DHT22;26044;50.864;20.658;2023-02-04T16:24:42;-1.60;99.90
40340;DHT22;26044;50.864;20.658;2023-02-04T16:27:12;-1.60;99.90
40340;DHT22;26044;50.864;20.658;2023-02-04T16:29:55;-1.70;99.90
40340;DHT22;26044;50.864;20.658;2023-02-04T16:32:22;-1.70;99.90
40340;DHT22;26044;50.864;20.658;2023-02-04T16:35:26;-1.60;99.90
40340;DHT22;26044;50.864;20.658;2023-02-04T16:42:59;-1.60;99.90
40340;DHT22;26044;50.864;20.658;2023-02-04T16:56:48;-1.80;99.90
40340;DHT22;26044;50.864;20.658;2023-02-04T16:59:50;-1.70;99.90
40340;DHT22;26044;50.864;20.658;2023-02-04T17:07:21;-1.80;99.90
40340;DHT22;26044;50.864;20.658;2023-02-04T17:23:15;-1.80;99.90